Time;durP1;ratioP1;P1;durP2;ratioP2;P2;SDS_P1;SDS_P2;PMS_P1;PMS_P2;Temp;Humidity;BMP_temperature;BMP_pressure;BME280_temperature;BME280_humidity;BME280_pressure;Samples;Min_cycle;Max_cycle;Signal;HPM_P1;HPM_P2
2023/07/10 00:01:01;;;;;;;3.80;1.60;;;;;;;21.05;50.37;99907.05;105988;1257;61303;-75
2023/07/10 00:03:28;;;;;;;4.30;1.60;;;;;;;21.04;50.50;99903.41;106004;1251;63834;-75
2023/07/10 00:05:59;;;;;;;2.60;1.50;;;;;;;21.03;50.37;99905.73;106072;1256;61307;-74
2023/07/10 00:08:27;;;;;;;2.30;1.50;;;;;;;21.03;50.42;99905.70;105908;1254;61261;-74
2023/07/10 00:10:54;;;;;;;2.80;1.60;;;;;;;21.02;50.44;99906.03;105919;1266;65950;-75
2023/07/10 00:13:23;;;;;;;2.30;1.60;;;;;;;20.99;50.46;99903.55;105841;1257;61338;-75
2023/07/10 00:15:51;;;;;;;2.50;1.50;;;;;;;20.98;50.55;99899.95;105922;1253;63848;-75
2023/07/10 00:18:19;;;;;;;1.80;1.40;;;;;;;20.98;50.61;99904.37;105773;1257;61285;-74
2023/07/10 00:20:45;;;;;;;2.20;1.60;;;;;;;20.97;50.75;99907.18;105812;1257;61133;-75
2023/07/10 00:23:13;;;;;;;4.40;1.90;;;;;;;20.95;51.01;99907.70;105903;1254;66048;-75
2023/07/10 00:25:39;;;;;;;4.00;1.60;;;;;;;20.93;51.06;99903.80;105704;1257;61310;-75
2023/07/10 00:28:14;;;;;;;3.90;1.90;;;;;;;20.91;51.18;99903.55;105695;1257;63994;-75
2023/07/10 00:30:45;;;;;;;2.90;1.70;;;;;;;20.87;51.21;99903.50;105759;1257;61217;-74
2023/07/10 00:33:12;;;;;;;2.40;1.60;;;;;;;20.85;51.30;99902.71;105586;1258;61311;-75
2023/07/10 00:35:39;;;;;;;3.60;1.60;;;;;;;20.83;51.38;99901.04;105912;1257;66156;-74
2023/07/10 00:38:26;;;;;;;3.00;2.10;;;;;;;20.80;51.75;99899.38;105754;1257;61343;-74
2023/07/10 00:40:52;;;;;;;4.60;1.80;;;;;;;20.76;51.81;99899.63;105742;1257;64005;-75
2023/07/10 00:43:36;;;;;;;3.30;1.90;;;;;;;20.69;51.72;99900.64;105722;1260;61193;-75
2023/07/10 00:46:14;;;;;;;4.50;1.70;;;;;;;20.65;51.96;99895.70;105813;1253;61176;-75
2023/07/10 00:48:47;;;;;;;3.10;1.60;;;;;;;20.64;52.01;99893.34;105614;1259;65853;-75
2023/07/10 00:51:23;;;;;;;4.50;2.10;;;;;;;20.62;52.18;99895.61;105682;1260;61840;-75
2023/07/10 00:53:49;;;;;;;5.70;1.90;;;;;;;20.60;52.28;99898.61;105892;1259;64162;-74
2023/07/10 00:56:17;;;;;;;4.80;2.00;;;;;;;20.58;52.28;99899.89;105731;1254;61338;-74
2023/07/10 00:58:46;;;;;;;5.30;2.00;;;;;;;20.62;52.20;99899.15;105712;1252;61434;-75
2023/07/10 01:01:13;;;;;;;2.30;1.90;;;;;;;20.60;52.20;99900.13;105798;1256;65758;-75
2023/07/10 01:03:41;;;;;;;2.20;1.80;;;;;;;20.52;52.40;99902.61;105811;1251;61385;-74
2023/07/10 01:06:18;;;;;;;4.10;1.80;;;;;;;20.53;52.33;99903.23;105857;1251;64023;-74
2023/07/10 01:08:53;;;;;;;3.70;2.00;;;;;;;20.52;52.38;99902.57;105909;1251;61191;-74
2023/07/10 01:11:19;;;;;;;2.70;1.80;;;;;;;20.51;52.45;99905.58;105720;1254;61272;-75
2023/07/10 01:13:48;;;;;;;3.40;2.00;;;;;;;20.49;52.49;99905.23;105863;1253;65986;-75
2023/07/10 01:16:16;;;;;;;4.10;1.90;;;;;;;20.48;52.59;99904.17;105995;1256;61298;-74
2023/07/10 01:18:44;;;;;;;4.10;2.00;;;;;;;20.48;52.60;99905.54;106068;1251;63998;-75
2023/07/10 01:21:30;;;;;;;4.30;1.70;;;;;;;20.46;52.64;99902.95;105820;1251;61314;-74
2023/07/10 01:23:57;;;;;;;4.90;1.80;;;;;;;20.43;52.68;99900.09;105974;1261;61228;-75
2023/07/10 01:26:23;;;;;;;4.30;2.00;;;;;;;20.43;52.75;99901.96;105777;1253;64690;-75
2023/07/10 01:28:52;;;;;;;3.40;1.70;;;;;;;20.42;52.83;99903.31;105889;1256;61333;-75
2023/07/10 01:31:19;;;;;;;2.30;2.00;;;;;;;20.39;53.03;99903.63;105929;1261;62587;-75
2023/07/10 01:33:51;;;;;;;3.90;1.90;;;;;;;20.39;53.07;99902.18;105892;1251;61450;-76
2023/07/10 01:36:24;;;;;;;3.80;2.50;;;;;;;20.37;53.06;99903.73;105846;1254;61212;-76
2023/07/10 01:38:55;;;;;;;5.20;1.90;;;;;;;20.35;53.07;99905.39;105808;1253;66086;-75
2023/07/10 01:41:30;;;;;;;5.50;2.10;;;;;;;20.37;53.30;99911.13;106060;1252;61308;-75
2023/07/10 01:43:57;;;;;;;4.40;2.00;;;;;;;20.31;53.39;99914.64;106187;1251;64043;-75
2023/07/10 01:46:26;;;;;;;4.30;2.10;;;;;;;20.29;53.35;99914.79;106097;1253;61466;-75
2023/07/10 01:48:54;;;;;;;6.50;2.00;;;;;;;20.29;53.45;99915.16;106208;1256;61229;-74
2023/07/10 01:51:22;;;;;;;3.70;2.30;;;;;;;20.28;53.46;99917.22;106313;1252;64703;-75
2023/07/10 01:53:49;;;;;;;5.30;2.10;;;;;;;20.30;53.59;99917.85;106124;1251;61323;-75
2023/07/10 01:56:17;;;;;;;4.70;2.30;;;;;;;20.29;53.67;99919.57;106011;1251;64112;-75
2023/07/10 01:58:44;;;;;;;3.60;2.20;;;;;;;20.30;53.54;99922.10;105868;1251;61717;-75
2023/07/10 02:01:10;;;;;;;4.10;2.20;;;;;;;20.30;53.61;99924.23;105852;1257;61345;-76
2023/07/10 02:03:38;;;;;;;3.90;2.30;;;;;;;20.28;53.69;99927.45;106120;1257;65984;-74
2023/07/10 02:06:05;;;;;;;2.90;2.50;;;;;;;20.29;53.75;99927.66;106066;1254;61219;-74
2023/07/10 02:08:32;;;;;;;3.10;2.30;;;;;;;20.25;53.62;99931.87;105943;1256;64084;-77
2023/07/10 02:10:59;;;;;;;3.00;2.20;;;;;;;20.24;53.83;99936.73;106019;1252;61139;-76
2023/07/10 02:13:26;;;;;;;4.20;2.50;;;;;;;20.23;53.90;99938.79;105824;1251;61269;-74
2023/07/10 02:15:53;;;;;;;3.60;2.20;;;;;;;20.22;53.87;99941.09;105705;1258;65834;-76
2023/07/10 02:18:20;;;;;;;4.30;2.20;;;;;;;20.21;53.91;99943.65;105897;1251;61129;-76
2023/07/10 02:20:50;;;;;;;4.00;2.60;;;;;;;20.21;53.93;99945.17;105904;1257;62484;-75
2023/07/10 02:23:19;;;;;;;3.40;2.30;;;;;;;20.21;54.05;99942.66;105848;1251;61259;-77
2023/07/10 02:25:46;;;;;;;4.40;2.30;;;;;;;20.20;54.19;99948.59;105890;1258;61139;-75
2023/07/10 02:28:15;;;;;;;4.00;2.50;;;;;;;20.21;54.14;99949.42;105804;1256;66099;-75
2023/07/10 02:30:42;;;;;;;4.70;2.40;;;;;;;20.22;54.21;99946.95;105836;1254;61482;-76
2023/07/10 02:33:09;;;;;;;6.90;2.50;;;;;;;20.23;54.20;99945.96;105809;1254;64007;-75
2023/07/10 02:35:36;;;;;;;3.90;2.30;;;;;;;20.22;54.29;99949.76;105709;1259;61316;-74
2023/07/10 02:38:03;;;;;;;4.30;2.30;;;;;;;20.24;54.19;99954.59;105788;1254;61235;-74
2023/07/10 02:40:29;;;;;;;2.70;2.20;;;;;;;20.28;54.13;99951.73;105657;1259;65996;-73
2023/07/10 02:42:56;;;;;;;3.10;2.30;;;;;;;20.31;54.09;99951.68;105806;1253;61263;-74
2023/07/10 02:45:24;;;;;;;4.50;2.60;;;;;;;20.31;54.09;99953.34;105770;1254;63832;-73
2023/07/10 02:47:50;;;;;;;3.60;2.40;;;;;;;20.33;54.11;99954.54;105871;1253;61322;-74
2023/07/10 02:50:18;;;;;;;3.70;2.40;;;;;;;20.37;54.00;99952.35;105964;1257;61331;-75
2023/07/10 02:52:45;;;;;;;5.30;2.80;;;;;;;20.39;54.07;99951.41;105846;1258;65879;-75
2023/07/10 02:55:12;;;;;;;3.50;2.60;;;;;;;20.41;54.09;99944.94;105770;1254;61316;-75
2023/07/10 02:57:39;;;;;;;3.50;2.70;;;;;;;20.38;54.18;99947.98;105685;1257;63700;-76
2023/07/10 03:00:06;;;;;;;4.70;2.60;;;;;;;20.39;54.30;99952.29;105852;1251;61254;-75
2023/07/10 03:02:34;;;;;;;3.70;2.50;;;;;;;20.41;54.26;99950.11;105919;1251;61649;-77
2023/07/10 03:05:01;;;;;;;5.60;2.90;;;;;;;20.46;54.09;99946.21;106057;1257;66099;-78
2023/07/10 03:07:28;;;;;;;4.80;2.60;;;;;;;20.46;54.19;99950.25;106047;1252;61341;-76
2023/07/10 03:09:56;;;;;;;4.80;2.70;;;;;;;20.46;54.14;99952.45;105770;1257;63846;-78
2023/07/10 03:12:22;;;;;;;4.30;2.70;;;;;;;20.47;54.08;99947.20;105748;1251;61247;-74
2023/07/10 03:14:49;;;;;;;5.60;3.00;;;;;;;20.47;53.99;99949.02;105699;1254;61933;-76
2023/07/10 03:17:16;;;;;;;3.80;2.40;;;;;;;20.46;53.99;99952.56;105959;1256;65882;-76
2023/07/10 03:19:43;;;;;;;4.30;3.00;;;;;;;20.40;54.14;99950.89;105977;1256;61245;-78
2023/07/10 03:22:10;;;;;;;3.60;2.60;;;;;;;20.46;54.03;99951.98;106012;1256;64042;-78
2023/07/10 03:24:37;;;;;;;4.60;2.80;;;;;;;20.45;54.21;99952.14;105734;1251;61250;-76
2023/07/10 03:27:04;;;;;;;5.10;2.80;;;;;;;20.43;54.38;99951.28;105926;1252;61343;-75
2023/07/10 03:29:31;;;;;;;7.00;2.90;;;;;;;20.44;54.49;99952.08;105883;1255;65803;-76
2023/07/10 03:31:57;;;;;;;5.70;3.10;;;;;;;20.44;54.36;99951.91;105831;1251;61333;-74
2023/07/10 03:34:24;;;;;;;4.10;2.80;;;;;;;20.42;54.40;99950.89;105544;1259;64070;-75
2023/07/10 03:36:51;;;;;;;5.90;3.20;;;;;;;20.44;54.44;99953.60;105772;1251;62959;-77
2023/07/10 03:39:18;;;;;;;5.10;2.80;;;;;;;20.47;54.33;99959.84;105922;1251;61350;-75
2023/07/10 03:41:44;;;;;;;3.70;3.00;;;;;;;20.49;54.36;99961.05;105908;1257;66037;-76
2023/07/10 03:44:11;;;;;;;5.60;2.70;;;;;;;20.52;54.34;99961.60;105786;1251;61315;-75
2023/07/10 03:46:38;;;;;;;4.50;2.90;;;;;;;20.57;54.33;99960.44;105750;1257;63932;-74
2023/07/10 03:49:04;;;;;;;4.00;2.80;;;;;;;20.63;54.40;99961.66;105764;1256;61270;-75
2023/07/10 03:51:31;;;;;;;7.10;2.70;;;;;;;20.67;54.30;99960.58;105778;1251;61217;-75
2023/07/10 03:53:58;;;;;;;4.40;2.70;;;;;;;20.68;54.30;99960.96;105800;1256;65859;-75
2023/07/10 03:56:25;;;;;;;4.40;2.80;;;;;;;20.70;54.43;99967.33;105717;1251;61764;-75
2023/07/10 03:58:51;;;;;;;3.90;2.80;;;;;;;20.76;54.34;99968.56;105952;1251;63967;-76
2023/07/10 04:01:18;;;;;;;4.40;2.60;;;;;;;20.75;54.30;99966.25;106087;1251;61129;-75
2023/07/10 04:03:44;;;;;;;4.80;2.80;;;;;;;20.81;54.26;99969.29;105912;1254;61234;-75
2023/07/10 04:06:13;;;;;;;4.80;3.10;;;;;;;20.87;54.29;99966.64;105929;1254;66022;-74
2023/07/10 04:08:40;;;;;;;4.50;2.80;;;;;;;20.93;54.28;99965.60;105713;1254;61303;-74
2023/07/10 04:11:11;;;;;;;4.40;2.90;;;;;;;20.96;54.15;99966.95;105761;1257;62535;-74
2023/07/10 04:13:38;;;;;;;3.50;2.70;;;;;;;21.01;54.00;99965.02;105742;1257;61264;-74
2023/07/10 04:16:14;;;;;;;4.00;2.70;;;;;;;21.00;54.15;99959.81;105910;1253;61318;-74
2023/07/10 04:18:41;;;;;;;5.30;2.80;;;;;;;21.03;54.15;99961.06;105941;1254;64702;-74
2023/07/10 04:21:19;;;;;;;3.40;2.60;;;;;;;21.07;54.17;99962.40;105675;1253;61357;-74
2023/07/10 04:23:46;;;;;;;3.20;2.80;;;;;;;21.13;54.04;99961.48;105556;1257;64265;-74
2023/07/10 04:26:16;;;;;;;4.80;2.90;;;;;;;21.18;54.05;99960.71;105678;1254;61148;-73
2023/07/10 04:28:46;;;;;;;5.40;2.60;;;;;;;21.23;53.89;99962.05;105897;1254;61223;-73
2023/07/10 04:31:14;;;;;;;4.80;3.00;;;;;;;21.25;53.85;99961.75;105925;1254;65898;-74
2023/07/10 04:33:40;;;;;;;3.70;2.70;;;;;;;21.31;53.83;99960.41;105794;1257;61259;-74
2023/07/10 04:36:07;;;;;;;6.40;2.90;;;;;;;21.38;53.83;99953.46;105779;1254;63968;-74
2023/07/10 04:38:34;;;;;;;4.00;2.80;;;;;;;21.43;53.50;99952.73;105608;1254;61259;-74
2023/07/10 04:41:02;;;;;;;4.80;2.90;;;;;;;21.49;53.48;99959.69;105741;1254;61253;-74
2023/07/10 04:43:33;;;;;;;4.30;2.80;;;;;;;21.52;53.42;99961.88;105812;1256;65877;-74
2023/07/10 04:46:02;;;;;;;3.90;2.80;;;;;;;21.51;53.43;99961.08;105812;1254;61334;-73
2023/07/10 04:48:30;;;;;;;4.70;2.90;;;;;;;21.52;53.22;99960.92;105756;1254;62760;-75
2023/07/10 04:50:58;;;;;;;4.10;2.50;;;;;;;21.60;53.24;99958.48;105709;1254;61244;-75
2023/07/10 04:53:26;;;;;;;4.80;3.00;;;;;;;21.69;53.12;99957.58;105790;1254;61205;-74
2023/07/10 04:55:52;;;;;;;3.60;2.60;;;;;;;21.76;53.13;99955.23;105710;1257;66091;-74
2023/07/10 04:58:24;;;;;;;6.90;2.60;;;;;;;21.84;52.74;99951.98;105671;1251;61398;-74
2023/07/10 05:00:52;;;;;;;4.00;2.70;;;;;;;21.92;52.50;99950.67;105851;1251;63992;-74
2023/07/10 05:03:19;;;;;;;5.30;2.90;;;;;;;21.99;52.47;99948.30;105797;1251;61161;-74
2023/07/10 05:05:56;;;;;;;3.40;2.60;;;;;;;22.07;52.52;99951.89;105928;1255;61129;-74
2023/07/10 05:08:24;;;;;;;3.90;2.50;;;;;;;22.15;52.33;99953.64;105674;1257;65738;-74
2023/07/10 05:10:51;;;;;;;7.00;2.60;;;;;;;22.23;52.37;99957.20;105940;1252;61398;-74
2023/07/10 05:13:18;;;;;;;5.00;2.80;;;;;;;22.28;52.37;99951.81;105829;1251;63726;-74
2023/07/10 05:15:46;;;;;;;3.00;2.50;;;;;;;22.34;52.14;99950.94;105939;1251;61290;-74
2023/07/10 05:18:13;;;;;;;8.20;2.90;;;;;;;22.39;52.11;99951.39;105982;1256;61264;-74
2023/07/10 05:20:43;;;;;;;4.10;2.90;;;;;;;22.42;52.01;99953.59;105782;1253;66009;-74
2023/07/10 05:23:10;;;;;;;3.80;2.60;;;;;;;22.50;51.78;99952.28;105823;1251;61302;-74
2023/07/10 05:25:37;;;;;;;5.20;2.80;;;;;;;22.55;51.77;99948.59;105834;1256;63880;-74
2023/07/10 05:28:04;;;;;;;5.40;2.60;;;;;;;22.59;51.81;99949.66;105956;1251;61304;-73
2023/07/10 05:30:31;;;;;;;3.60;2.70;;;;;;;22.69;51.47;99947.82;105913;1254;61238;-73
2023/07/10 05:32:58;;;;;;;3.50;2.50;;;;;;;22.76;50.98;99942.01;105721;1256;65855;-74
2023/07/10 05:35:24;;;;;;;3.10;2.30;;;;;;;22.84;50.87;99942.61;105914;1253;61336;-73
2023/07/10 05:37:51;;;;;;;3.50;2.40;;;;;;;22.91;50.30;99940.33;105882;1254;63942;-73
2023/07/10 05:40:18;;;;;;;4.10;2.60;;;;;;;22.95;50.04;99940.92;105723;1253;61251;-74
2023/07/10 05:42:45;;;;;;;3.50;2.50;;;;;;;23.03;49.85;99940.69;105777;1252;61321;-74
2023/07/10 05:45:11;;;;;;;3.40;2.30;;;;;;;23.06;49.56;99940.27;105635;1254;66104;-74
2023/07/10 05:47:39;;;;;;;4.90;2.40;;;;;;;23.12;49.46;99940.03;105653;1253;61270;-74
2023/07/10 05:50:06;;;;;;;3.70;2.20;;;;;;;23.21;49.33;99936.31;105800;1252;63877;-74
2023/07/10 05:52:33;;;;;;;3.80;2.10;;;;;;;23.28;48.98;99937.92;105866;1254;61311;-74
2023/07/10 05:55:00;;;;;;;2.90;2.20;;;;;;;23.40;48.52;99938.48;105908;1254;61208;-74
2023/07/10 05:57:27;;;;;;;3.80;2.20;;;;;;;23.48;48.11;99942.27;105816;1256;66045;-74
2023/07/10 05:59:54;;;;;;;3.30;2.30;;;;;;;23.56;47.84;99943.17;105838;1251;61330;-74
2023/07/10 06:02:21;;;;;;;2.40;2.00;;;;;;;23.62;47.65;99944.77;105681;1254;63929;-74
2023/07/10 06:04:47;;;;;;;3.20;2.10;;;;;;;23.69;47.11;99944.98;105715;1253;61351;-74
2023/07/10 06:07:14;;;;;;;2.00;1.70;;;;;;;23.79;46.42;99945.52;105781;1257;61260;-73
2023/07/10 06:09:42;;;;;;;3.40;2.10;;;;;;;23.84;46.12;99947.58;105802;1256;65705;-74
2023/07/10 06:12:08;;;;;;;3.10;2.10;;;;;;;23.89;46.14;99938.94;105914;1253;61366;-73
2023/07/10 06:14:36;;;;;;;3.70;2.20;;;;;;;23.97;46.35;99934.45;105756;1254;63697;-73
2023/07/10 06:17:03;;;;;;;2.40;2.20;;;;;;;24.05;45.85;99933.55;105846;1253;61256;-75
2023/07/10 06:19:30;;;;;;;2.60;1.70;;;;;;;24.12;45.52;99938.27;105656;1253;61246;-73
2023/07/10 06:22:12;;;;;;;4.30;2.00;;;;;;;24.14;45.49;99941.33;105860;1253;61394;-73
2023/07/10 06:24:39;;;;;;;3.20;1.90;;;;;;;24.26;45.47;99941.05;105719;1253;61346;-73
2023/07/10 06:27:06;;;;;;;4.00;2.10;;;;;;;24.36;44.79;99937.70;105894;1256;63821;-72
2023/07/10 06:29:36;;;;;;;3.00;2.00;;;;;;;24.46;44.66;99936.23;105847;1253;61123;-72
2023/07/10 06:32:04;;;;;;;5.30;2.20;;;;;;;24.48;44.74;99936.05;105857;1253;61318;-72
2023/07/10 06:34:31;;;;;;;2.10;1.80;;;;;;;24.58;44.31;99939.44;105557;1259;66080;-73
2023/07/10 06:36:57;;;;;;;4.30;1.80;;;;;;;24.66;43.42;99933.79;105771;1254;61324;-74
2023/07/10 06:39:26;;;;;;;2.20;1.90;;;;;;;24.72;43.36;99937.13;105722;1256;64073;-73
2023/07/10 06:41:53;;;;;;;2.50;2.10;;;;;;;24.79;43.41;99933.56;105763;1252;61208;-73
2023/07/10 06:44:20;;;;;;;3.40;2.00;;;;;;;24.87;43.35;99936.51;105712;1252;61222;-73
2023/07/10 06:46:47;;;;;;;2.50;2.10;;;;;;;24.95;43.06;99935.45;105681;1256;65678;-73
2023/07/10 06:49:14;;;;;;;2.30;1.70;;;;;;;25.02;42.70;99935.02;105653;1253;61212;-73
2023/07/10 06:51:41;;;;;;;3.30;1.90;;;;;;;25.07;42.52;99933.09;105913;1253;63825;-73
2023/07/10 06:54:09;;;;;;;4.60;1.70;;;;;;;25.13;42.14;99926.86;105866;1253;61283;-73
2023/07/10 06:56:37;;;;;;;3.40;2.10;;;;;;;25.15;41.87;99932.73;105903;1251;61263;-73
2023/07/10 06:59:04;;;;;;;5.60;1.80;;;;;;;25.15;41.96;99925.88;105877;1252;65965;-73
2023/07/10 07:01:31;;;;;;;11.70;2.10;;;;;;;25.24;42.10;99922.55;105861;1251;61298;-73
2023/07/10 07:03:57;;;;;;;3.70;1.70;;;;;;;25.31;41.76;99920.27;105782;1251;64033;-73
2023/07/10 07:06:26;;;;;;;4.50;2.00;;;;;;;25.37;41.40;99915.02;105941;1251;61338;-72
2023/07/10 07:08:54;;;;;;;4.60;2.10;;;;;;;25.44;40.99;99914.50;105923;1251;61266;-71
2023/07/10 07:11:20;;;;;;;4.20;1.70;;;;;;;25.46;40.74;99912.73;105894;1251;65903;-73
2023/07/10 07:13:47;;;;;;;3.30;1.70;;;;;;;25.51;40.97;99912.41;105749;1257;61259;-72
2023/07/10 07:16:14;;;;;;;2.40;2.00;;;;;;;25.51;40.41;99906.20;105947;1251;64049;-72
2023/07/10 07:18:41;;;;;;;2.70;1.70;;;;;;;25.52;40.32;99904.86;105954;1256;61179;-72
2023/07/10 07:21:13;;;;;;;6.00;1.70;;;;;;;25.56;40.55;99901.80;105937;1251;61277;-72
2023/07/10 07:23:40;;;;;;;4.70;1.80;;;;;;;25.61;40.25;99899.60;106017;1253;66070;-72
2023/07/10 07:26:07;;;;;;;5.30;1.90;;;;;;;25.66;40.03;99904.21;105959;1253;61250;-73
2023/07/10 07:28:34;;;;;;;5.10;1.90;;;;;;;25.70;39.85;99904.27;105988;1253;62583;-72
2023/07/10 07:31:02;;;;;;;5.70;1.80;;;;;;;25.73;40.28;99901.20;106120;1251;61349;-73
2023/07/10 07:33:30;;;;;;;5.10;1.80;;;;;;;25.79;40.53;99897.36;105785;1251;224188;-72
2023/07/10 07:35:59;;;;;;;3.00;2.10;;;;;;;25.88;40.72;99894.71;105732;1252;65880;-72
2023/07/10 07:38:28;;;;;;;3.20;2.10;;;;;;;25.98;40.64;99896.91;105911;1251;61283;-72
2023/07/10 07:40:57;;;;;;;5.20;1.90;;;;;;;26.08;40.76;99898.28;105878;1251;64049;-69
2023/07/10 07:43:24;;;;;;;2.80;2.00;;;;;;;26.17;40.02;99898.89;105796;1256;61330;-72
2023/07/10 07:45:55;;;;;;;3.50;2.00;;;;;;;26.14;39.77;99897.13;106065;1251;61241;-72
2023/07/10 07:48:24;;;;;;;5.60;2.10;;;;;;;26.14;39.98;99893.55;106035;1253;66088;-74
2023/07/10 07:50:54;;;;;;;3.40;1.90;;;;;;;26.20;39.88;99893.04;105739;1251;61149;-74
2023/07/10 07:53:22;;;;;;;10.90;2.10;;;;;;;26.30;39.68;99892.99;105949;1251;64082;-72
2023/07/10 07:55:49;;;;;;;4.40;2.10;;;;;;;26.36;39.67;99890.89;105796;1251;61234;-73
2023/07/10 07:58:16;;;;;;;7.50;2.20;;;;;;;26.37;39.34;99891.61;105965;1251;61246;-73
2023/07/10 08:00:43;;;;;;;4.90;2.00;;;;;;;26.43;39.71;99884.19;105884;1256;65837;-71
2023/07/10 08:03:10;;;;;;;2.40;1.80;;;;;;;26.45;39.89;99881.40;106105;1251;61270;-73
2023/07/10 08:05:37;;;;;;;5.20;2.00;;;;;;;26.48;39.91;99878.55;105937;1253;64122;-72
2023/07/10 08:08:05;;;;;;;5.40;1.90;;;;;;;26.53;39.44;99877.41;105676;1258;61305;-73
2023/07/10 08:10:34;;;;;;;3.20;2.00;;;;;;;26.56;38.38;99874.16;105877;1256;61102;-73
2023/07/10 08:13:02;;;;;;;3.90;1.80;;;;;;;26.56;38.42;99873.30;105699;1253;64759;-73
2023/07/10 08:15:28;;;;;;;3.40;2.00;;;;;;;26.56;38.22;99870.20;105913;1257;61253;-73
2023/07/10 08:17:55;;;;;;;3.40;1.80;;;;;;;26.61;38.52;99868.80;105734;1253;63939;-73
2023/07/10 08:20:22;;;;;;;3.20;1.80;;;;;;;26.69;38.50;99866.14;105816;1251;61191;-72
2023/07/10 08:22:48;;;;;;;3.00;1.60;;;;;;;26.79;38.18;99867.98;105755;1254;61309;-72
2023/07/10 08:25:15;;;;;;;2.50;1.70;;;;;;;26.89;38.14;99868.77;105910;1252;64750;-74
2023/07/10 08:27:43;;;;;;;2.30;1.80;;;;;;;26.98;37.94;99866.83;105805;1251;61422;-73
2023/07/10 08:30:10;;;;;;;5.30;1.80;;;;;;;27.06;37.92;99862.23;105730;1251;63989;-74
2023/07/10 08:32:45;;;;;;;3.10;1.80;;;;;;;27.14;37.50;99865.80;105791;1256;61261;-74
2023/07/10 08:35:12;;;;;;;4.00;1.60;;;;;;;27.22;37.44;99863.15;105998;1251;61214;-74
2023/07/10 08:37:39;;;;;;;4.10;1.70;;;;;;;27.29;37.55;99861.73;105946;1255;65930;-74
2023/07/10 08:40:10;;;;;;;3.70;1.90;;;;;;;27.33;37.16;99862.80;105961;1253;61935;-74
2023/07/10 08:42:38;;;;;;;3.50;1.70;;;;;;;27.29;36.43;99859.91;105684;1256;62585;-74
2023/07/10 08:45:08;;;;;;;1.70;1.60;;;;;;;27.26;36.43;99859.80;105922;1253;61137;-74
2023/07/10 08:47:37;;;;;;;4.40;1.80;;;;;;;27.28;36.61;99863.95;105738;1251;61123;-74
2023/07/10 08:50:17;;;;;;;2.00;1.60;;;;;;;27.34;36.47;99865.09;105885;1251;64453;-74
2023/07/10 08:52:51;;;;;;;4.50;1.50;;;;;;;27.37;36.06;99861.79;105647;1253;61293;-74
2023/07/10 08:55:27;;;;;;;5.00;1.70;;;;;;;27.40;36.02;99859.93;105750;1251;63861;-73
2023/07/10 08:57:57;;;;;;;3.40;1.60;;;;;;;27.51;36.68;99861.38;105756;1253;61213;-73
2023/07/10 09:00:23;;;;;;;1.90;1.70;;;;;;;27.62;35.99;99857.77;105902;1251;61139;-75
2023/07/10 09:02:53;;;;;;;2.20;1.70;;;;;;;27.65;35.27;99853.21;105639;1251;61246;-75
2023/07/10 09:05:29;;;;;;;2.10;1.60;;;;;;;27.64;35.31;99854.23;105826;1251;61372;-73
2023/07/10 09:08:05;;;;;;;5.30;1.70;;;;;;;27.70;35.98;99857.11;105919;1253;64007;-74
2023/07/10 09:10:35;;;;;;;2.90;1.70;;;;;;;27.80;35.40;99854.29;105765;1251;61296;-73
2023/07/10 09:13:03;;;;;;;4.50;1.60;;;;;;;27.87;35.67;99856.09;105714;1251;61910;-74
2023/07/10 09:15:33;;;;;;;2.80;1.50;;;;;;;27.98;35.51;99856.25;105591;1258;66082;-73
2023/07/10 09:18:23;;;;;;;2.70;1.60;;;;;;;28.10;34.87;99857.52;105859;1253;61252;-74
2023/07/10 09:20:52;;;;;;;3.10;1.60;;;;;;;28.14;34.57;99854.41;105788;1253;64022;-75
2023/07/10 09:23:24;;;;;;;3.00;1.60;;;;;;;28.14;35.01;99850.30;105712;1257;61329;-74
2023/07/10 09:25:57;;;;;;;2.50;1.60;;;;;;;28.21;35.20;99851.86;105930;1251;61263;-73
2023/07/10 09:28:24;;;;;;;2.70;1.80;;;;;;;28.28;34.85;99849.97;105758;1258;65920;-73
2023/07/10 09:30:57;;;;;;;2.60;1.70;;;;;;;28.35;35.59;99850.95;105932;1253;61328;-74
2023/07/10 09:33:23;;;;;;;1.90;1.70;;;;;;;28.46;35.33;99849.25;105506;1253;63845;-73
2023/07/10 09:35:50;;;;;;;3.10;1.60;;;;;;;28.60;35.53;99844.36;105576;1254;61302;-73
2023/07/10 09:38:18;;;;;;;2.50;1.70;;;;;;;28.77;35.36;99843.98;105797;1253;61356;-74
2023/07/10 09:40:47;;;;;;;4.40;1.90;;;;;;;28.93;35.14;99841.95;105947;1253;66063;-74
2023/07/10 09:43:22;;;;;;;3.60;1.80;;;;;;;29.05;34.92;99835.30;105865;1253;61103;-75
2023/07/10 09:45:50;;;;;;;2.80;1.80;;;;;;;29.19;34.76;99834.41;105728;1253;64089;-74
2023/07/10 09:48:20;;;;;;;4.50;1.70;;;;;;;29.32;34.25;99835.18;105734;1253;61303;-75
2023/07/10 09:50:49;;;;;;;1.80;1.60;;;;;;;29.42;33.87;99832.44;105866;1257;61191;-77
2023/07/10 09:53:32;;;;;;;6.20;1.80;;;;;;;29.50;34.38;99834.78;105684;1252;64695;-75
2023/07/10 09:55:59;;;;;;;3.00;2.10;;;;;;;29.63;33.93;99844.24;105907;1251;61298;-76
2023/07/10 09:58:26;;;;;;;3.00;1.90;;;;;;;29.62;33.55;99835.84;105735;1252;64076;-75
2023/07/10 10:00:52;;;;;;;2.80;1.60;;;;;;;29.58;34.17;99839.46;105642;1258;61113;-75
2023/07/10 10:03:30;;;;;;;3.30;1.90;;;;;;;29.67;34.52;99837.30;105898;1253;61251;-74
2023/07/10 10:05:57;;;;;;;2.30;1.80;;;;;;;29.84;34.04;99832.81;105738;1253;65724;-78
2023/07/10 10:08:29;;;;;;;1.80;1.60;;;;;;;30.03;33.58;99837.63;105888;1253;61320;-74
2023/07/10 10:11:11;;;;;;;3.80;1.80;;;;;;;30.17;32.97;99837.13;105835;1253;63823;-75
2023/07/10 10:13:56;;;;;;;1.90;1.60;;;;;;;30.21;32.70;99836.34;105817;1256;61124;-74
2023/07/10 10:16:41;;;;;;;2.20;1.90;;;;;;;30.24;33.29;99836.46;105832;1257;61204;-77
2023/07/10 10:19:30;;;;;;;5.20;1.90;;;;;;;30.39;33.08;99839.21;105723;1253;66032;-76
2023/07/10 10:21:57;;;;;;;3.40;1.80;;;;;;;30.49;33.06;99835.12;105550;1254;61280;-73
2023/07/10 10:24:24;;;;;;;3.20;1.70;;;;;;;30.48;32.50;99836.59;105720;1253;64097;-75
2023/07/10 10:27:02;;;;;;;1.90;1.70;;;;;;;30.24;32.62;99837.45;105751;1253;61304;-75
2023/07/10 10:29:54;;;;;;;2.50;1.90;;;;;;;29.86;33.13;99842.28;105927;1253;61238;-74
2023/07/10 10:32:54;;;;;;;2.90;2.10;;;;;;;29.46;33.53;99850.98;105746;1257;65880;-74
2023/07/10 10:35:40;;;;;;;3.10;2.00;;;;;;;29.25;34.10;99848.11;105861;1257;61226;-74
2023/07/10 10:38:12;;;;;;;3.70;2.40;;;;;;;29.28;34.20;99844.13;105857;1253;63800;-72
2023/07/10 10:40:42;;;;;;;2.10;1.90;;;;;;;29.48;34.28;99835.78;105774;1255;61212;-73
2023/07/10 10:43:24;;;;;;;2.00;1.80;;;;;;;29.76;34.30;99827.02;105851;1253;61238;-72
2023/07/10 10:45:54;;;;;;;5.60;1.80;;;;;;;29.94;33.62;99823.98;105903;1258;66048;-74
2023/07/10 10:48:28;;;;;;;3.30;1.90;;;;;;;30.14;33.50;99824.25;105897;1253;61843;-76
2023/07/10 10:50:58;;;;;;;3.60;1.90;;;;;;;30.46;34.02;99826.05;106023;1256;63956;-74
2023/07/10 10:53:59;;;;;;;2.60;1.90;;;;;;;30.77;32.86;99822.16;105985;1255;61638;-76
2023/07/10 10:56:36;;;;;;;1.70;1.60;;;;;;;31.06;31.36;99829.93;105891;1251;61305;-78
2023/07/10 10:59:17;;;;;;;2.20;1.90;;;;;;;31.01;30.03;99830.78;106053;1255;65750;-75
2023/07/10 11:02:15;;;;;;;2.80;2.00;;;;;;;30.87;30.80;99830.80;106003;1253;62754;-76
2023/07/10 11:04:45;;;;;;;3.30;2.00;;;;;;;30.90;31.32;99828.75;105759;1253;65110;-77
2023/07/10 11:07:13;;;;;;;2.40;2.10;;;;;;;30.91;31.87;99833.88;105864;1254;61288;-77
2023/07/10 11:09:58;;;;;;;2.40;2.20;;;;;;;30.97;31.62;99838.63;105697;1254;61283;-77
2023/07/10 11:12:30;;;;;;;2.00;1.80;;;;;;;30.95;31.06;99840.21;105953;1256;65898;-78
2023/07/10 11:15:01;;;;;;;2.60;2.00;;;;;;;30.81;31.42;99843.71;106140;1257;61973;-77
2023/07/10 11:17:28;;;;;;;3.20;1.90;;;;;;;30.68;32.45;99842.35;105819;1258;63826;-77
2023/07/10 11:19:55;;;;;;;5.70;2.30;;;;;;;30.44;33.44;99839.29;105829;1251;61269;-77
2023/07/10 11:22:31;;;;;;;2.80;1.80;;;;;;;30.16;34.38;99837.94;105941;1251;61324;-77
2023/07/10 11:24:59;;;;;;;10.00;2.20;;;;;;;29.92;34.95;99856.38;105865;1253;65909;-77
2023/07/10 11:27:33;;;;;;;10.10;2.60;;;;;;;29.58;38.03;99897.52;105989;1251;61398;-77
2023/07/10 11:30:11;;;;;;;3.90;2.10;;;;;;;28.55;39.67;99889.31;105976;1251;63754;-78
2023/07/10 11:33:15;;;;;;;2.70;2.00;;;;;;;27.38;39.81;99868.73;105786;1257;61109;-79
2023/07/10 11:36:13;;;;;;;3.20;2.40;;;;;;;26.64;43.57;99864.94;105953;1251;61133;-77